createdAt,value
2022-10-21T00:00:57.319Z,13.30
2022-10-21T00:03:27.622Z,14.02
2022-10-21T00:05:55.726Z,12.18
2022-10-21T00:08:23.864Z,9.90
2022-10-21T00:10:58.973Z,11.02
2022-10-21T00:13:28.272Z,9.90
2022-10-21T00:16:08.280Z,12.52
2022-10-21T00:18:37.563Z,11.43
2022-10-21T00:21:08.018Z,12.30
2022-10-21T00:23:36.050Z,12.57
2022-10-21T00:26:04.478Z,9.65
2022-10-21T00:28:33.220Z,10.23
2022-10-21T00:31:01.083Z,9.65
2022-10-21T00:33:28.802Z,14.98
2022-10-21T00:35:59.229Z,10.52
2022-10-21T00:38:26.881Z,10.63
2022-10-21T00:40:54.696Z,11.82
2022-10-21T00:43:23.193Z,10.57
2022-10-21T00:45:54.673Z,10.95
2022-10-21T00:48:31.849Z,11.40
2022-10-21T00:51:03.810Z,12.85
2022-10-21T00:53:33.407Z,8.63
2022-10-21T00:56:13.972Z,10.85
2022-10-21T00:58:47.513Z,9.32
2022-10-21T01:01:19.151Z,8.88
2022-10-21T01:03:50.593Z,8.32
2022-10-21T01:06:22.000Z,12.95
2022-10-21T01:08:50.586Z,14.45
2022-10-21T01:11:21.201Z,8.07
2022-10-21T01:14:06.552Z,11.45
2022-10-21T01:16:38.408Z,8.18
2022-10-21T01:19:21.307Z,8.35
2022-10-21T01:22:18.179Z,8.98
2022-10-21T01:24:48.703Z,7.35
2022-10-21T01:27:45.621Z,10.13
2022-10-21T01:30:30.005Z,10.65
2022-10-21T01:33:06.446Z,9.27
2022-10-21T01:35:41.010Z,10.90
2022-10-21T01:38:30.103Z,7.72
2022-10-21T01:41:08.822Z,12.27
2022-10-21T01:44:00.670Z,9.35
2022-10-21T01:46:34.434Z,10.55
2022-10-21T01:49:08.645Z,12.13
2022-10-21T01:51:37.743Z,9.30
2022-10-21T01:54:13.112Z,9.77
2022-10-21T01:56:44.149Z,8.02
2022-10-21T01:59:14.534Z,7.35
2022-10-21T02:01:44.102Z,6.28
2022-10-21T02:04:13.800Z,7.82
2022-10-21T02:06:41.582Z,10.63
2022-10-21T02:09:09.693Z,10.55
2022-10-21T02:11:39.189Z,8.68
2022-10-21T02:14:14.253Z,9.32
2022-10-21T02:16:42.899Z,10.48
2022-10-21T02:19:18.981Z,8.73
2022-10-21T02:21:49.840Z,6.32
2022-10-21T02:24:33.971Z,10.57
2022-10-21T02:27:01.736Z,9.90
2022-10-21T02:29:42.754Z,7.82
2022-10-21T02:32:59.922Z,8.70
2022-10-21T02:36:15.436Z,10.52
2022-10-21T02:38:49.931Z,8.50
2022-10-21T02:41:22.392Z,8.90
2022-10-21T02:43:58.588Z,9.55
2022-10-21T02:46:27.136Z,6.90
2022-10-21T02:48:54.902Z,11.05
2022-10-21T02:51:22.470Z,11.02
2022-10-21T02:53:50.123Z,9.30
2022-10-21T02:56:17.838Z,11.43
2022-10-21T02:58:45.583Z,8.85
2022-10-21T03:01:13.311Z,11.05
2022-10-21T03:03:40.898Z,9.93
2022-10-21T03:06:08.584Z,10.65
2022-10-21T03:08:36.274Z,11.32
2022-10-21T03:11:04.262Z,10.98
2022-10-21T03:13:32.111Z,9.30
2022-10-21T03:16:00.240Z,11.02
2022-10-21T03:18:27.942Z,9.35
2022-10-21T03:20:55.684Z,7.43
2022-10-21T03:23:23.275Z,11.18
2022-10-21T03:25:51.427Z,11.27
2022-10-21T03:28:20.806Z,10.38
2022-10-21T03:30:48.527Z,14.27
2022-10-21T03:33:16.207Z,10.52
2022-10-21T03:35:44.023Z,10.98
2022-10-21T03:38:11.821Z,7.20
2022-10-21T03:40:39.362Z,9.73
2022-10-21T03:43:08.544Z,13.35
2022-10-21T03:45:36.138Z,10.50
2022-10-21T03:48:04.061Z,9.13
2022-10-21T03:50:31.781Z,15.18
2022-10-21T03:53:00.619Z,9.82
2022-10-21T03:55:28.301Z,11.73
2022-10-21T03:57:55.963Z,11.32
2022-10-21T04:00:26.038Z,10.18
2022-10-21T04:02:55.936Z,11.07
2022-10-21T04:05:23.713Z,10.30
2022-10-21T04:07:53.117Z,8.57
2022-10-21T04:10:21.423Z,10.25
2022-10-21T04:12:49.156Z,8.85
2022-10-21T04:15:16.782Z,10.50
2022-10-21T04:17:46.531Z,10.15
2022-10-21T04:20:14.462Z,12.07
2022-10-21T04:22:42.242Z,11.85
2022-10-21T04:25:10.083Z,9.82
2022-10-21T04:27:37.644Z,11.95
2022-10-21T04:30:06.115Z,8.38
2022-10-21T04:32:33.727Z,10.82
2022-10-21T04:35:01.312Z,14.15
2022-10-21T04:37:29.034Z,8.73
2022-10-21T04:39:57.838Z,10.57
2022-10-21T04:42:25.629Z,10.48
2022-10-21T04:44:53.235Z,9.10
2022-10-21T04:47:24.338Z,15.18
2022-10-21T04:49:51.971Z,15.85
2022-10-21T04:52:21.305Z,17.40
2022-10-21T04:54:48.942Z,12.98
2022-10-21T04:57:16.613Z,13.65
2022-10-21T04:59:44.419Z,11.82
2022-10-21T05:02:13.162Z,14.07
2022-10-21T05:04:40.920Z,15.02
2022-10-21T05:07:09.382Z,17.00
2022-10-21T05:09:37.056Z,17.92
2022-10-21T05:12:07.333Z,13.60
2022-10-21T05:14:35.871Z,13.70
2022-10-21T05:17:03.861Z,13.77
2022-10-21T05:19:31.644Z,19.98
2022-10-21T05:21:59.730Z,29.67
2022-10-21T05:24:27.619Z,30.08
2022-10-21T05:26:55.357Z,29.90
2022-10-21T05:29:23.094Z,34.88
2022-10-21T05:31:50.791Z,29.85
2022-10-21T05:34:18.580Z,23.77
2022-10-21T05:36:48.113Z,13.07
2022-10-21T05:39:16.291Z,13.23
2022-10-21T05:41:46.982Z,13.13
2022-10-21T05:44:15.834Z,13.15
2022-10-21T05:46:43.570Z,15.35
2022-10-21T05:49:11.285Z,16.83
2022-10-21T05:51:39.143Z,13.15
2022-10-21T05:54:06.873Z,14.68
2022-10-21T05:56:34.506Z,15.13
2022-10-21T05:59:03.605Z,15.70
2022-10-21T06:01:32.366Z,15.02
2022-10-21T06:04:00.161Z,9.93
2022-10-21T06:06:27.871Z,11.82
2022-10-21T06:08:55.610Z,13.15
2022-10-21T06:11:23.557Z,14.52
2022-10-21T06:13:51.272Z,14.88
2022-10-21T06:16:18.964Z,9.32
2022-10-21T06:18:46.680Z,13.50
2022-10-21T06:21:14.565Z,16.92
2022-10-21T06:23:42.123Z,13.05
2022-10-21T06:26:14.949Z,11.63
2022-10-21T06:28:43.866Z,12.25
2022-10-21T06:31:16.144Z,14.70
2022-10-21T06:33:44.512Z,11.55
2022-10-21T06:36:12.220Z,13.48
2022-10-21T06:38:39.895Z,19.15
2022-10-21T06:41:13.464Z,17.95
2022-10-21T06:43:42.669Z,30.25
2022-10-21T06:46:13.220Z,19.35
2022-10-21T06:48:41.599Z,18.35
2022-10-21T06:51:19.946Z,13.52
2022-10-21T06:53:52.667Z,13.98
2022-10-21T06:56:21.252Z,10.75
2022-10-21T06:58:50.103Z,18.40
2022-10-21T07:01:41.063Z,16.45
2022-10-21T07:04:17.089Z,14.27
2022-10-21T07:06:46.803Z,18.33
2022-10-21T07:09:14.891Z,17.98
2022-10-21T07:11:42.829Z,15.13
2022-10-21T07:14:12.558Z,21.27
2022-10-21T07:16:40.376Z,17.90
2022-10-21T07:19:10.075Z,46.88
2022-10-21T07:21:38.534Z,20.13
2022-10-21T07:24:07.519Z,16.80
2022-10-21T07:26:35.376Z,20.10
2022-10-21T07:29:04.209Z,20.25
2022-10-21T07:31:34.631Z,15.98
2022-10-21T07:36:40.370Z,22.85
2022-10-21T07:39:12.019Z,14.52
2022-10-21T07:41:43.255Z,30.02
2022-10-21T07:44:11.793Z,25.17
2022-10-21T07:46:41.282Z,26.85
2022-10-21T07:49:09.820Z,23.77
2022-10-21T07:51:38.910Z,25.13
2022-10-21T07:54:09.619Z,15.85
2022-10-21T07:56:41.104Z,17.00
2022-10-21T07:59:12.889Z,14.10
2022-10-21T08:01:45.137Z,16.65
2022-10-21T08:04:15.877Z,17.52
2022-10-21T08:06:46.633Z,17.25
2022-10-21T08:09:15.488Z,9.68
2022-10-21T08:11:43.890Z,14.40
2022-10-21T08:14:11.541Z,17.08
2022-10-21T08:16:39.728Z,19.00
2022-10-21T08:19:15.370Z,15.70
2022-10-21T08:21:43.084Z,12.30
2022-10-21T08:24:10.823Z,10.38
2022-10-21T08:26:38.709Z,14.35
2022-10-21T08:29:06.527Z,16.27
2022-10-21T08:31:34.159Z,15.60
2022-10-21T08:34:01.767Z,18.35
2022-10-21T08:36:29.509Z,12.20
2022-10-21T08:38:59.183Z,13.80
2022-10-21T08:41:32.869Z,13.68
2022-10-21T08:44:17.953Z,13.52
2022-10-21T08:46:51.863Z,15.77
2022-10-21T08:49:34.460Z,13.20
2022-10-21T08:52:11.366Z,17.50
2022-10-21T08:54:47.035Z,14.98
2022-10-21T08:57:15.101Z,13.70
2022-10-21T08:59:43.412Z,11.68
2022-10-21T09:02:26.403Z,13.93
2022-10-21T09:08:42.912Z,14.32
2022-10-21T09:11:19.812Z,14.23
2022-10-21T09:17:01.822Z,12.38
2022-10-21T09:19:42.586Z,14.82
2022-10-21T09:22:41.102Z,13.23
2022-10-21T09:25:49.420Z,16.13
2022-10-21T09:30:45.497Z,19.95
2022-10-21T09:33:25.671Z,14.90
2022-10-21T09:36:01.318Z,14.70
2022-10-21T09:38:34.379Z,13.77
2022-10-21T09:41:03.714Z,16.85
2022-10-21T09:43:31.987Z,13.55
2022-10-21T09:45:59.633Z,14.65
2022-10-21T09:51:45.908Z,20.17
2022-10-21T09:54:20.756Z,29.48
2022-10-21T09:57:01.926Z,23.80
2022-10-21T09:59:33.274Z,17.63
2022-10-21T10:02:15.434Z,28.13
2022-10-21T10:04:43.147Z,18.20
2022-10-21T10:07:28.672Z,23.92
2022-10-21T10:09:56.290Z,16.75
2022-10-21T10:12:27.000Z,16.95
2022-10-21T10:14:55.839Z,18.67
2022-10-21T10:17:38.830Z,24.70
2022-10-21T10:20:06.620Z,18.48
2022-10-21T10:22:58.582Z,16.35
2022-10-21T10:25:34.606Z,12.95
2022-10-21T10:28:03.808Z,17.40
2022-10-21T10:30:43.489Z,18.05
2022-10-21T10:33:20.784Z,24.05
2022-10-21T10:35:54.610Z,15.13
2022-10-21T10:38:28.613Z,13.27
2022-10-21T10:41:05.455Z,18.48
2022-10-21T10:43:36.594Z,15.00
2022-10-21T10:46:09.856Z,16.13
2022-10-21T10:48:40.523Z,29.08
2022-10-21T10:51:27.757Z,11.52
2022-10-21T10:56:46.122Z,20.90
2022-10-21T10:59:35.849Z,19.60
2022-10-21T11:02:10.272Z,20.67
2022-10-21T11:05:09.266Z,17.45
2022-10-21T11:07:55.236Z,17.25
2022-10-21T11:10:33.900Z,20.67
2022-10-21T11:13:03.744Z,18.45
2022-10-21T11:16:06.049Z,17.60
2022-10-21T11:18:48.755Z,17.13
2022-10-21T11:21:54.578Z,19.38
2022-10-21T11:24:46.816Z,17.17
2022-10-21T11:27:22.195Z,16.55
2022-10-21T11:30:05.031Z,19.10
2022-10-21T11:32:53.488Z,13.63
2022-10-21T11:35:59.199Z,17.15
2022-10-21T11:38:34.717Z,18.30
2022-10-21T11:41:22.870Z,13.02
2022-10-21T11:43:58.187Z,19.90
2022-10-21T11:46:49.177Z,16.90
2022-10-21T11:50:05.610Z,15.25
2022-10-21T11:52:33.316Z,17.48
2022-10-21T11:55:31.741Z,12.70
2022-10-21T11:58:33.322Z,13.73
2022-10-21T12:01:27.191Z,20.77
2022-10-21T12:04:00.809Z,16.48
2022-10-21T12:06:40.061Z,20.35
2022-10-21T12:09:34.808Z,24.50
2022-10-21T12:12:19.838Z,20.17
2022-10-21T12:14:53.139Z,20.52
2022-10-21T12:17:22.925Z,23.05
2022-10-21T12:20:04.181Z,20.65
2022-10-21T12:22:33.837Z,15.85
2022-10-21T12:25:17.168Z,20.58
2022-10-21T12:28:05.100Z,16.58
2022-10-21T12:31:11.986Z,14.13
2022-10-21T12:33:43.672Z,12.57
2022-10-21T12:36:41.789Z,15.20
2022-10-21T12:39:33.768Z,18.10
2022-10-21T12:42:28.152Z,17.13
2022-10-21T12:44:55.815Z,20.85
2022-10-21T12:47:33.832Z,20.08
2022-10-21T12:50:04.389Z,16.95
2022-10-21T12:52:38.321Z,19.70
2022-10-21T12:55:19.571Z,17.92
2022-10-21T12:58:01.000Z,20.45
2022-10-21T13:00:29.111Z,21.15
2022-10-21T13:03:18.544Z,24.05
2022-10-21T13:05:46.175Z,25.48
2022-10-21T13:08:23.089Z,21.38
2022-10-21T13:11:07.300Z,17.88
2022-10-21T13:13:44.854Z,14.82
2022-10-21T13:16:21.616Z,15.55
2022-10-21T13:21:35.341Z,19.58
2022-10-21T13:24:30.574Z,20.27
2022-10-21T13:27:01.694Z,15.20
2022-10-21T13:29:43.248Z,16.42
2022-10-21T13:32:21.806Z,14.55
2022-10-21T13:35:20.628Z,14.45
2022-10-21T13:38:17.673Z,15.55
2022-10-21T13:41:00.295Z,13.05
2022-10-21T13:43:41.033Z,13.70
2022-10-21T13:46:17.063Z,16.52
2022-10-21T13:48:46.973Z,17.23
2022-10-21T13:51:19.240Z,15.55
2022-10-21T13:53:48.639Z,17.10
2022-10-21T13:56:19.350Z,11.98
2022-10-21T13:58:47.313Z,20.17
2022-10-21T14:01:27.460Z,12.18
2022-10-21T14:04:11.607Z,14.27
2022-10-21T14:06:45.799Z,20.35
2022-10-21T14:09:19.464Z,15.57
2022-10-21T14:11:52.607Z,14.68
2022-10-21T14:14:23.708Z,14.68
2022-10-21T14:17:08.337Z,19.65
2022-10-21T14:19:39.310Z,15.20
2022-10-21T14:22:09.951Z,12.90
2022-10-21T14:24:48.085Z,16.45
2022-10-21T14:27:24.252Z,14.02
2022-10-21T14:29:52.172Z,14.65
2022-10-21T14:32:22.350Z,16.23
2022-10-21T14:35:12.697Z,15.65
2022-10-21T14:37:53.358Z,19.55
2022-10-21T14:40:31.837Z,19.70
2022-10-21T14:43:11.730Z,17.08
2022-10-21T14:45:46.967Z,15.85
2022-10-21T14:48:14.495Z,13.38
2022-10-21T14:50:43.244Z,11.82
2022-10-21T14:53:21.298Z,12.10
2022-10-21T14:55:56.014Z,19.20
2022-10-21T14:58:28.891Z,20.55
2022-10-21T15:00:59.459Z,20.13
2022-10-21T15:04:00.427Z,15.10
2022-10-21T15:06:36.680Z,14.32
2022-10-21T15:09:18.847Z,10.02
2022-10-21T15:11:48.893Z,10.00
2022-10-21T15:14:28.674Z,14.63
2022-10-21T15:17:09.185Z,14.10
2022-10-21T15:19:52.644Z,10.60
2022-10-21T15:22:34.867Z,11.68
2022-10-21T15:25:09.236Z,12.90
2022-10-21T15:27:42.959Z,13.15
2022-10-21T15:30:14.042Z,12.88
2022-10-21T15:32:42.349Z,11.45
2022-10-21T15:35:15.625Z,10.32
2022-10-21T15:37:43.591Z,9.88
2022-10-21T15:40:11.498Z,7.45
2022-10-21T15:42:39.202Z,9.88
2022-10-21T15:45:14.885Z,11.35
2022-10-21T15:47:42.784Z,10.30
2022-10-21T15:50:19.339Z,10.65
2022-10-21T15:52:47.421Z,13.68
2022-10-21T15:55:15.402Z,10.65
2022-10-21T15:57:43.074Z,11.05
2022-10-21T16:00:20.747Z,11.95
2022-10-21T16:02:52.254Z,11.75
2022-10-21T16:05:21.586Z,12.32
2022-10-21T16:07:49.268Z,11.00
2022-10-21T16:10:20.759Z,11.18
2022-10-21T16:12:49.999Z,12.35
2022-10-21T16:15:19.221Z,13.52
2022-10-21T16:17:50.164Z,10.68
2022-10-21T16:20:29.861Z,9.20
2022-10-21T16:23:02.035Z,10.90
2022-10-21T16:25:32.240Z,7.13
2022-10-21T16:28:00.909Z,10.13
2022-10-21T16:30:39.263Z,10.35
2022-10-21T16:33:07.143Z,10.15
2022-10-21T16:35:34.762Z,10.75
2022-10-21T16:38:02.464Z,14.05
2022-10-21T16:40:34.971Z,8.35
2022-10-21T16:43:02.917Z,11.38
2022-10-21T16:45:32.891Z,10.98
2022-10-21T16:48:03.637Z,11.88
2022-10-21T16:50:31.286Z,12.30
2022-10-21T16:52:59.041Z,18.92
2022-10-21T16:55:26.831Z,17.08
2022-10-21T16:57:54.497Z,14.68
2022-10-21T17:00:22.239Z,12.70
2022-10-21T17:02:51.488Z,13.73
2022-10-21T17:05:19.548Z,10.25
2022-10-21T17:07:47.282Z,10.60
2022-10-21T17:10:15.503Z,12.63
2022-10-21T17:12:43.492Z,16.42
2022-10-21T17:15:15.652Z,15.63
2022-10-21T17:17:43.433Z,16.80
2022-10-21T17:20:11.395Z,16.92
2022-10-21T17:22:38.996Z,13.75
2022-10-21T17:25:06.927Z,11.93
2022-10-21T17:27:35.098Z,16.52
2022-10-21T17:30:02.775Z,14.73
2022-10-21T17:32:30.649Z,14.52
2022-10-21T17:34:58.739Z,24.42
2022-10-21T17:37:26.896Z,22.63
2022-10-21T17:39:55.584Z,15.80
2022-10-21T17:42:23.203Z,13.23
2022-10-21T17:44:51.082Z,20.73
2022-10-21T17:47:18.678Z,16.48
2022-10-21T17:49:49.415Z,14.77
2022-10-21T17:52:17.147Z,15.63
2022-10-21T17:54:45.028Z,14.65
2022-10-21T17:57:12.791Z,17.00
2022-10-21T17:59:40.380Z,16.63
2022-10-21T18:02:09.961Z,15.27
2022-10-21T18:04:38.286Z,15.20
2022-10-21T18:07:09.472Z,16.80
2022-10-21T18:09:38.206Z,15.15
2022-10-21T18:12:09.936Z,13.75
2022-10-21T18:14:39.305Z,19.75
2022-10-21T18:17:08.575Z,20.90
2022-10-21T18:19:37.076Z,23.05
2022-10-21T18:22:04.939Z,18.65
2022-10-21T18:24:32.583Z,18.17
2022-10-21T18:27:00.279Z,19.35
2022-10-21T18:29:27.906Z,17.45
2022-10-21T18:31:56.917Z,18.02
2022-10-21T18:34:24.607Z,20.08
2022-10-21T18:39:20.037Z,24.23
2022-10-21T18:41:47.655Z,24.33
2022-10-21T18:44:15.407Z,22.08
2022-10-21T18:46:43.149Z,22.77
2022-10-21T18:49:13.764Z,18.35
2022-10-21T18:51:42.209Z,16.58
2022-10-21T18:54:10.210Z,18.17
2022-10-21T18:56:37.856Z,15.13
2022-10-21T18:59:05.582Z,16.73
2022-10-21T19:01:33.615Z,17.23
2022-10-21T19:04:02.348Z,15.40
2022-10-21T19:06:38.792Z,14.80
2022-10-21T19:09:26.623Z,17.45
2022-10-21T19:11:54.604Z,13.73
2022-10-21T19:14:22.435Z,12.07
2022-10-21T19:16:50.253Z,14.13
2022-10-21T19:19:17.845Z,13.25
2022-10-21T19:21:45.602Z,12.13
2022-10-21T19:24:13.749Z,17.17
2022-10-21T19:26:44.050Z,15.75
2022-10-21T19:29:16.524Z,15.88
2022-10-21T19:31:44.892Z,12.27
2022-10-21T19:34:18.497Z,13.80
2022-10-21T19:36:46.655Z,16.33
2022-10-21T19:39:14.971Z,15.52
2022-10-21T19:41:42.887Z,17.63
2022-10-21T19:44:10.795Z,23.70
2022-10-21T19:46:39.392Z,26.88
2022-10-21T19:49:09.468Z,26.45
2022-10-21T19:51:38.071Z,26.77
2022-10-21T19:54:07.104Z,23.45
2022-10-21T19:56:35.819Z,22.45
2022-10-21T19:59:04.853Z,26.08
2022-10-21T20:01:33.927Z,21.48
2022-10-21T20:04:03.015Z,19.98
2022-10-21T20:06:35.606Z,22.67
2022-10-21T20:09:09.245Z,20.75
2022-10-21T20:11:38.029Z,18.90
2022-10-21T20:14:06.072Z,18.10
2022-10-21T20:16:37.425Z,17.83
2022-10-21T20:19:07.593Z,22.67
2022-10-21T20:21:36.922Z,16.63
2022-10-21T20:24:05.560Z,13.95
2022-10-21T20:26:33.622Z,17.35
2022-10-21T20:29:02.136Z,12.68
2022-10-21T20:31:30.578Z,16.38
2022-10-21T20:33:58.282Z,17.27
2022-10-21T20:36:28.738Z,14.50
2022-10-21T20:38:58.745Z,16.15
2022-10-21T20:41:30.857Z,13.05
2022-10-21T20:43:58.427Z,19.73
2022-10-21T20:46:26.787Z,28.10
2022-10-21T20:48:55.049Z,26.80
2022-10-21T20:51:26.467Z,32.55
2022-10-21T20:53:57.527Z,30.42
2022-10-21T20:56:30.787Z,26.42
2022-10-21T20:58:59.201Z,37.17
2022-10-21T21:01:33.702Z,30.48
2022-10-21T21:04:05.308Z,32.28
2022-10-21T21:06:45.120Z,23.08
2022-10-21T21:09:37.637Z,20.08
2022-10-21T21:12:03.841Z,16.50
2022-10-21T21:14:32.623Z,16.52
2022-10-21T21:17:00.368Z,11.45
2022-10-21T21:19:28.640Z,11.20
2022-10-21T21:21:56.545Z,11.13
2022-10-21T21:24:24.237Z,11.18
2022-10-21T21:26:52.599Z,10.32
2022-10-21T21:29:20.270Z,10.05
2022-10-21T21:31:48.435Z,9.68
2022-10-21T21:34:16.447Z,8.82
2022-10-21T21:36:44.159Z,9.57
2022-10-21T21:41:41.084Z,12.43
2022-10-21T21:44:09.813Z,9.10
2022-10-21T21:46:37.579Z,9.07
2022-10-21T21:49:06.514Z,8.52
2022-10-21T21:51:36.422Z,8.73
2022-10-21T21:54:05.556Z,10.32
2022-10-21T21:56:34.308Z,9.60
2022-10-21T21:59:02.925Z,10.25
2022-10-21T22:01:30.802Z,13.85
2022-10-21T22:03:59.875Z,13.15
2022-10-21T22:06:31.116Z,10.88
2022-10-21T22:09:00.582Z,12.07
2022-10-21T22:11:31.225Z,10.18
2022-10-21T22:14:00.057Z,12.45
2022-10-21T22:16:30.497Z,12.57
2022-10-21T22:19:00.740Z,8.95
2022-10-21T22:21:30.961Z,9.82
2022-10-21T22:23:59.155Z,9.80
2022-10-21T22:26:27.155Z,9.43
2022-10-21T22:28:55.017Z,9.50
2022-10-21T22:31:27.402Z,10.70
2022-10-21T22:33:59.960Z,7.68
2022-10-21T22:36:28.741Z,8.48
2022-10-21T22:38:58.160Z,9.30
2022-10-21T22:41:27.031Z,9.32
2022-10-21T22:43:54.733Z,12.05
2022-10-21T22:46:33.382Z,9.43
2022-10-21T22:49:02.774Z,9.52
2022-10-21T22:51:30.725Z,11.65
2022-10-21T22:53:59.069Z,9.95
2022-10-21T22:56:27.938Z,8.50
2022-10-21T22:58:57.299Z,13.20
2022-10-21T23:01:30.581Z,8.85
2022-10-21T23:04:03.149Z,13.15
2022-10-21T23:06:32.189Z,10.35
2022-10-21T23:09:00.997Z,8.32
2022-10-21T23:11:29.529Z,9.45
2022-10-21T23:14:03.065Z,8.15
2022-10-21T23:16:36.450Z,9.35
2022-10-21T23:19:05.216Z,12.50
2022-10-21T23:21:33.736Z,9.55
2022-10-21T23:24:01.576Z,8.50
2022-10-21T23:26:29.228Z,11.70
2022-10-21T23:28:57.054Z,8.27
2022-10-21T23:31:24.746Z,10.30
2022-10-21T23:33:53.410Z,12.13
2022-10-21T23:36:21.112Z,12.77
2022-10-21T23:38:49.058Z,13.95
2022-10-21T23:41:16.716Z,12.77
2022-10-21T23:43:44.353Z,12.55
2022-10-21T23:46:11.918Z,10.50
2022-10-21T23:48:39.732Z,10.05
2022-10-21T23:51:07.722Z,9.13
2022-10-21T23:53:35.367Z,10.25
2022-10-21T23:56:03.754Z,6.90
2022-10-21T23:58:31.988Z,7.38
